createdAt,value
2018-07-07T00:03:38.996Z,23.90
2018-07-07T00:08:42.555Z,22.00
2018-07-07T00:13:46.075Z,22.17
2018-07-07T00:18:49.743Z,21.60
2018-07-07T00:23:54.939Z,21.27
2018-07-07T00:28:58.469Z,20.33
2018-07-07T00:34:02.030Z,21.40
2018-07-07T00:39:05.676Z,20.67
2018-07-07T00:44:09.259Z,25.83
2018-07-07T00:49:12.857Z,24.67
2018-07-07T00:54:16.423Z,25.60
2018-07-07T00:59:20.168Z,19.87
2018-07-07T01:04:23.818Z,21.53
2018-07-07T01:09:27.381Z,20.47
2018-07-07T01:14:31.138Z,25.30
2018-07-07T01:19:34.732Z,20.43
2018-07-07T01:24:38.603Z,22.23
2018-07-07T01:29:42.747Z,36.10
2018-07-07T01:34:46.308Z,21.97
2018-07-07T01:39:49.964Z,22.60
2018-07-07T01:44:53.785Z,22.43
2018-07-07T01:49:57.383Z,21.73
2018-07-07T01:55:00.968Z,28.70
2018-07-07T02:00:04.640Z,21.83
2018-07-07T02:05:08.264Z,24.50
2018-07-07T02:10:11.514Z,23.97
2018-07-07T02:15:15.092Z,23.60
2018-07-07T02:20:18.751Z,28.77
2018-07-07T02:25:22.306Z,24.07
2018-07-07T02:30:25.960Z,23.47
2018-07-07T02:35:29.526Z,30.73
2018-07-07T02:40:33.969Z,22.93
2018-07-07T02:45:37.618Z,23.17
2018-07-07T02:50:41.217Z,22.37
2018-07-07T02:55:44.896Z,23.50
2018-07-07T03:00:48.458Z,26.67
2018-07-07T03:05:51.999Z,27.00
2018-07-07T03:10:55.607Z,26.70
2018-07-07T03:15:59.228Z,26.17
2018-07-07T03:21:02.817Z,20.87
2018-07-07T03:26:06.036Z,25.17
2018-07-07T03:31:09.604Z,24.30
2018-07-07T03:36:13.187Z,28.10
2018-07-07T03:41:16.749Z,38.27
2018-07-07T03:46:20.360Z,39.30
2018-07-07T03:51:23.966Z,38.23
2018-07-07T03:56:27.561Z,45.13
2018-07-07T04:01:31.168Z,48.87
2018-07-07T04:06:34.932Z,47.73
2018-07-07T04:11:38.509Z,55.50
2018-07-07T04:16:42.089Z,62.53
2018-07-07T04:21:45.661Z,66.00
2018-07-07T04:26:49.223Z,66.87
2018-07-07T04:31:52.824Z,63.30
2018-07-07T04:36:56.664Z,63.77
2018-07-07T04:42:00.259Z,56.27
2018-07-07T04:47:03.870Z,53.83
2018-07-07T04:52:07.451Z,56.10
2018-07-07T04:57:11.064Z,54.30
2018-07-07T05:02:14.944Z,52.23
2018-07-07T05:07:19.154Z,51.20
2018-07-07T05:12:22.704Z,56.90
2018-07-07T05:17:28.216Z,46.80
2018-07-07T05:22:31.759Z,45.43
2018-07-07T05:27:35.690Z,45.53
2018-07-07T05:32:39.283Z,41.07
2018-07-07T05:37:43.052Z,43.30
2018-07-07T05:42:46.645Z,41.17
2018-07-07T05:47:50.392Z,41.93
2018-07-07T05:52:53.985Z,45.63
2018-07-07T05:57:57.586Z,40.40
2018-07-07T06:03:01.164Z,42.03
2018-07-07T06:08:05.251Z,34.50
2018-07-07T06:13:08.955Z,35.07
2018-07-07T06:18:12.650Z,30.40
2018-07-07T06:23:16.248Z,33.87
2018-07-07T06:28:20.488Z,29.30
2018-07-07T06:33:24.048Z,27.53
2018-07-07T06:38:28.900Z,29.07
2018-07-07T06:43:32.505Z,32.00
2018-07-07T06:48:36.157Z,32.47
2018-07-07T06:53:39.739Z,30.87
2018-07-07T06:58:43.289Z,29.47
2018-07-07T07:03:46.885Z,29.10
2018-07-07T07:08:50.935Z,30.13
2018-07-07T07:13:54.826Z,30.80
2018-07-07T07:18:58.744Z,27.77
2018-07-07T07:24:02.317Z,30.23
2018-07-07T07:29:05.874Z,33.53
2018-07-07T07:34:09.426Z,33.40
2018-07-07T07:39:13.816Z,27.83
2018-07-07T07:44:17.379Z,27.10
2018-07-07T07:49:21.265Z,27.80
2018-07-07T07:54:24.832Z,29.50
2018-07-07T07:59:28.412Z,23.57
2018-07-07T08:04:32.321Z,25.40
2018-07-07T08:09:35.883Z,22.83
2018-07-07T08:14:39.564Z,24.37
2018-07-07T08:19:43.185Z,22.63
2018-07-07T08:24:47.106Z,23.93
2018-07-07T08:29:50.853Z,23.07
2018-07-07T08:34:54.425Z,23.60
2018-07-07T08:39:58.031Z,20.40
2018-07-07T08:45:01.593Z,21.83
2018-07-07T08:50:05.574Z,21.30
2018-07-07T08:55:09.192Z,22.33
2018-07-07T09:00:13.103Z,25.03
2018-07-07T09:05:16.635Z,25.80
2018-07-07T09:10:40.186Z,14.77
2018-07-07T09:15:44.812Z,14.63
2018-07-07T09:20:49.380Z,15.03
2018-07-07T09:25:52.977Z,14.67
2018-07-07T09:30:56.595Z,11.00
2018-07-07T09:36:00.247Z,9.37
2018-07-07T09:41:03.838Z,13.10
2018-07-07T09:46:07.742Z,11.40
2018-07-07T09:51:11.856Z,12.10
2018-07-07T09:56:15.432Z,8.40
2018-07-07T10:01:19.105Z,11.63
2018-07-07T10:06:22.740Z,11.70
2018-07-07T10:11:26.388Z,10.40
2018-07-07T10:16:29.947Z,11.60
2018-07-07T10:21:33.544Z,12.67
2018-07-07T10:26:38.155Z,7.07
2018-07-07T10:31:41.574Z,6.40
2018-07-07T10:36:45.325Z,6.33
2018-07-07T10:41:48.839Z,7.13
2018-07-07T10:46:52.496Z,7.00
2018-07-07T10:51:56.561Z,5.50
2018-07-07T10:57:00.185Z,5.33
2018-07-07T11:02:03.808Z,6.27
2018-07-07T11:07:07.423Z,5.80
2018-07-07T11:12:12.895Z,6.43
2018-07-07T11:17:16.442Z,5.87
2018-07-07T11:22:19.971Z,5.97
2018-07-07T11:27:23.896Z,6.00
2018-07-07T11:32:27.459Z,8.23
2018-07-07T11:37:31.222Z,4.10
2018-07-07T11:42:34.997Z,4.53
2018-07-07T11:47:39.162Z,7.53
2018-07-07T11:52:43.076Z,4.57
2018-07-07T11:57:46.653Z,4.67
2018-07-07T12:02:50.363Z,5.30
2018-07-07T12:08:00.831Z,5.67
2018-07-07T12:12:57.923Z,5.23
2018-07-07T12:18:01.980Z,7.33
2018-07-07T12:23:06.351Z,5.70
2018-07-07T12:28:25.800Z,4.40
2018-07-07T12:33:30.020Z,3.40
2018-07-07T12:38:33.842Z,3.00
2018-07-07T12:43:37.466Z,2.90
2018-07-07T12:48:41.007Z,4.47
2018-07-07T12:53:44.565Z,7.70
2018-07-07T12:58:48.140Z,4.40
2018-07-07T13:03:51.696Z,3.23
2018-07-07T13:08:55.285Z,3.03
2018-07-07T13:13:58.848Z,3.90
2018-07-07T13:19:02.556Z,4.17
2018-07-07T13:24:06.446Z,3.10
2018-07-07T13:29:10.005Z,4.60
2018-07-07T13:34:13.555Z,5.33
2018-07-07T13:39:17.502Z,4.17
2018-07-07T13:44:21.040Z,7.20
2018-07-07T13:49:24.702Z,7.00
2018-07-07T13:54:28.277Z,5.47
2018-07-07T13:59:31.510Z,4.40
2018-07-07T14:04:35.065Z,3.80
2018-07-07T14:09:40.563Z,3.30
2018-07-07T14:14:44.175Z,4.80
2018-07-07T14:19:47.768Z,28.77
2018-07-07T14:24:51.339Z,7.83
2018-07-07T14:29:54.928Z,7.20
2018-07-07T14:34:58.871Z,11.10
2018-07-07T14:40:02.489Z,8.63
2018-07-07T14:45:12.187Z,7.50
2018-07-07T14:50:16.620Z,8.90
2018-07-07T14:55:24.619Z,14.47
2018-07-07T15:01:31.782Z,12.57
2018-07-07T15:06:35.656Z,10.13
2018-07-07T15:11:39.258Z,12.87
2018-07-07T15:16:46.445Z,5.87
2018-07-07T15:21:49.993Z,4.10
2018-07-07T15:26:53.535Z,5.70
2018-07-07T15:31:57.328Z,7.53
2018-07-07T15:37:01.013Z,5.87
2018-07-07T15:42:04.577Z,5.73
2018-07-07T15:47:08.634Z,9.07
2018-07-07T15:52:14.168Z,5.77
2018-07-07T15:57:17.860Z,5.60
2018-07-07T16:02:21.445Z,4.80
2018-07-07T16:07:25.030Z,10.37
2018-07-07T16:12:28.634Z,5.50
2018-07-07T16:17:32.159Z,4.40
2018-07-07T16:22:36.077Z,5.03
2018-07-07T16:27:41.168Z,6.60
2018-07-07T16:32:44.731Z,7.33
2018-07-07T16:37:48.335Z,6.63
2018-07-07T16:42:51.940Z,6.53
2018-07-07T16:47:55.762Z,9.87
2018-07-07T16:53:00.105Z,10.73
2018-07-07T16:58:04.285Z,8.03
2018-07-07T17:03:08.620Z,6.37
2018-07-07T17:08:12.562Z,3.97
2018-07-07T17:13:18.741Z,7.13
2018-07-07T17:18:23.013Z,5.43
2018-07-07T17:23:26.635Z,6.50
2018-07-07T17:28:30.332Z,5.80
2018-07-07T17:33:33.621Z,11.00
2018-07-07T17:38:37.599Z,12.20
2018-07-07T17:43:41.572Z,6.70
2018-07-07T17:48:45.470Z,5.43
2018-07-07T17:53:49.868Z,7.17
2018-07-07T17:58:53.767Z,7.20
2018-07-07T18:03:58.001Z,6.07
2018-07-07T18:09:01.579Z,11.33
2018-07-07T18:14:05.462Z,5.33
2018-07-07T18:19:09.095Z,8.37
2018-07-07T18:24:12.633Z,7.00
2018-07-07T18:29:16.195Z,7.37
2018-07-07T18:34:20.616Z,5.03
2018-07-07T18:39:24.305Z,6.90
2018-07-07T18:44:27.906Z,5.63
2018-07-07T18:49:31.776Z,17.73
2018-07-07T18:54:35.320Z,7.47
2018-07-07T18:59:39.080Z,8.37
2018-07-07T19:04:42.623Z,10.57
2018-07-07T19:09:46.931Z,8.27
2018-07-07T19:14:50.851Z,10.87
2018-07-07T19:19:54.423Z,9.40
2018-07-07T19:25:03.385Z,9.77
2018-07-07T19:30:07.031Z,13.73
2018-07-07T19:35:15.984Z,7.33
2018-07-07T19:40:20.211Z,19.73
2018-07-07T19:45:23.853Z,12.70
2018-07-07T19:50:27.620Z,10.17
2018-07-07T19:55:31.843Z,8.80
2018-07-07T20:00:35.405Z,8.60
2018-07-07T20:05:38.979Z,15.90
2018-07-07T20:10:42.561Z,13.30
2018-07-07T20:16:16.040Z,13.53
2018-07-07T20:21:36.221Z,12.83
2018-07-07T20:26:43.984Z,16.23
2018-07-07T20:31:48.485Z,11.07
2018-07-07T20:36:52.652Z,14.03
2018-07-07T20:41:56.224Z,26.67
2018-07-07T20:52:30.121Z,36.00
2018-07-07T20:57:33.713Z,21.33
2018-07-07T21:02:53.435Z,15.03
2018-07-07T21:07:57.055Z,10.27
2018-07-07T21:13:00.635Z,11.03
2018-07-07T21:18:04.964Z,9.17
2018-07-07T21:23:08.191Z,11.60
2018-07-07T21:28:11.767Z,10.50
2018-07-07T21:33:15.308Z,24.20
2018-07-07T21:38:18.870Z,21.10
2018-07-07T21:43:22.409Z,16.40
2018-07-07T21:48:26.082Z,14.47
2018-07-07T21:53:29.680Z,15.37
2018-07-07T21:58:33.555Z,14.77
2018-07-07T22:03:42.424Z,15.70
2018-07-07T22:08:46.033Z,11.77
2018-07-07T22:13:49.880Z,17.23
2018-07-07T22:18:53.473Z,15.20
2018-07-07T22:23:57.101Z,34.37
2018-07-07T22:29:00.640Z,14.53
2018-07-07T22:34:04.368Z,18.67
2018-07-07T22:39:08.096Z,13.93
2018-07-07T22:44:11.773Z,11.53
2018-07-07T22:49:15.808Z,12.57
2018-07-07T22:54:22.628Z,15.70
2018-07-07T22:59:26.396Z,17.87
2018-07-07T23:04:30.474Z,12.73
2018-07-07T23:09:36.159Z,12.47
2018-07-07T23:14:39.884Z,13.43
2018-07-07T23:19:43.520Z,12.10
2018-07-07T23:24:47.422Z,13.53
2018-07-07T23:29:51.131Z,16.87
2018-07-07T23:34:54.867Z,17.13
2018-07-07T23:39:58.459Z,16.50
2018-07-07T23:45:02.208Z,11.43
2018-07-07T23:50:06.688Z,13.10
2018-07-07T23:55:10.636Z,13.17
